sensor_id;sensor_type;location;lat;lon;timestamp;temperature;humidity
25250;DHT22;13201;51.148;13.738;2023-03-31T00:01:25;11.30;99.90
25250;DHT22;13201;51.148;13.738;2023-03-31T00:03:51;11.30;99.90
25250;DHT22;13201;51.148;13.738;2023-03-31T00:06:27;11.30;99.90
25250;DHT22;13201;51.148;13.738;2023-03-31T00:08:53;11.30;99.90
25250;DHT22;13201;51.148;13.738;2023-03-31T00:11:19;11.30;99.90
25250;DHT22;13201;51.148;13.738;2023-03-31T00:13:46;11.30;99.90
25250;DHT22;13201;51.148;13.738;2023-03-31T00:16:12;11.30;99.90
25250;DHT22;13201;51.148;13.738;2023-03-31T00:18:38;11.30;99.90
25250;DHT22;13201;51.148;13.738;2023-03-31T00:21:14;11.20;99.90
25250;DHT22;13201;51.148;13.738;2023-03-31T00:23:50;11.30;99.90
25250;DHT22;13201;51.148;13.738;2023-03-31T00:26:16;11.30;99.90
25250;DHT22;13201;51.148;13.738;2023-03-31T00:28:41;11.20;99.90
25250;DHT22;13201;51.148;13.738;2023-03-31T00:31:07;11.20;99.90
25250;DHT22;13201;51.148;13.738;2023-03-31T00:33:32;11.20;99.90
25250;DHT22;13201;51.148;13.738;2023-03-31T00:35:58;11.30;99.90
25250;DHT22;13201;51.148;13.738;2023-03-31T00:38:27;11.30;99.90
25250;DHT22;13201;51.148;13.738;2023-03-31T00:40:55;11.40;99.90
25250;DHT22;13201;51.148;13.738;2023-03-31T00:43:33;11.30;99.90
25250;DHT22;13201;51.148;13.738;2023-03-31T00:46:26;11.40;99.90
25250;DHT22;13201;51.148;13.738;2023-03-31T00:48:52;11.40;99.90
25250;DHT22;13201;51.148;13.738;2023-03-31T00:51:20;11.40;99.90
25250;DHT22;13201;51.148;13.738;2023-03-31T00:53:51;11.40;99.90
25250;DHT22;13201;51.148;13.738;2023-03-31T00:56:22;11.40;99.90
25250;DHT22;13201;51.148;13.738;2023-03-31T00:58:48;11.40;99.90
25250;DHT22;13201;51.148;13.738;2023-03-31T01:01:20;11.30;99.90
25250;DHT22;13201;51.148;13.738;2023-03-31T01:03:49;11.40;99.90
25250;DHT22;13201;51.148;13.738;2023-03-31T01:36:31;10.80;99.90
25250;DHT22;13201;51.148;13.738;2023-03-31T01:41:42;10.90;99.90
25250;DHT22;13201;51.148;13.738;2023-03-31T01:44:24;11.00;99.90
25250;DHT22;13201;51.148;13.738;2023-03-31T01:47:01;11.00;99.90
25250;DHT22;13201;51.148;13.738;2023-03-31T01:49:33;11.10;99.90
25250;DHT22;13201;51.148;13.738;2023-03-31T01:52:07;11.10;99.90
25250;DHT22;13201;51.148;13.738;2023-03-31T01:54:48;11.10;99.90
25250;DHT22;13201;51.148;13.738;2023-03-31T01:57:37;11.10;99.90
25250;DHT22;13201;51.148;13.738;2023-03-31T02:00:14;11.20;99.90
25250;DHT22;13201;51.148;13.738;2023-03-31T02:03:16;11.20;99.90
25250;DHT22;13201;51.148;13.738;2023-03-31T02:05:48;11.20;99.90
25250;DHT22;13201;51.148;13.738;2023-03-31T02:08:21;11.20;99.90
25250;DHT22;13201;51.148;13.738;2023-03-31T02:10:49;11.10;99.90
25250;DHT22;13201;51.148;13.738;2023-03-31T02:13:17;11.20;99.90
25250;DHT22;13201;51.148;13.738;2023-03-31T02:15:47;11.20;99.90
25250;DHT22;13201;51.148;13.738;2023-03-31T02:18:18;11.20;99.90
25250;DHT22;13201;51.148;13.738;2023-03-31T02:20:48;11.20;99.90
25250;DHT22;13201;51.148;13.738;2023-03-31T02:23:17;11.30;99.90
25250;DHT22;13201;51.148;13.738;2023-03-31T02:25:48;11.30;99.90
25250;DHT22;13201;51.148;13.738;2023-03-31T02:28:22;11.20;99.90
25250;DHT22;13201;51.148;13.738;2023-03-31T02:33:17;11.20;99.90
25250;DHT22;13201;51.148;13.738;2023-03-31T02:35:43;11.20;99.90
25250;DHT22;13201;51.148;13.738;2023-03-31T02:38:09;11.20;99.90
25250;DHT22;13201;51.148;13.738;2023-03-31T02:40:36;11.20;99.90
25250;DHT22;13201;51.148;13.738;2023-03-31T02:43:02;11.20;99.90
25250;DHT22;13201;51.148;13.738;2023-03-31T02:48:38;11.10;99.90
25250;DHT22;13201;51.148;13.738;2023-03-31T02:53:53;11.10;99.90
25250;DHT22;13201;51.148;13.738;2023-03-31T02:59:13;11.00;99.90
25250;DHT22;13201;51.148;13.738;2023-03-31T03:15:29;11.00;99.90
25250;DHT22;13201;51.148;13.738;2023-03-31T03:17:57;11.00;99.90
25250;DHT22;13201;51.148;13.738;2023-03-31T03:20:23;11.00;99.90
25250;DHT22;13201;51.148;13.738;2023-03-31T03:22:49;10.90;99.90
25250;DHT22;13201;51.148;13.738;2023-03-31T03:25:16;10.90;99.90
25250;DHT22;13201;51.148;13.738;2023-03-31T03:27:43;10.90;99.90
25250;DHT22;13201;51.148;13.738;2023-03-31T03:30:10;11.00;99.90
25250;DHT22;13201;51.148;13.738;2023-03-31T03:32:36;11.00;99.90
25250;DHT22;13201;51.148;13.738;2023-03-31T03:35:04;11.00;99.90
25250;DHT22;13201;51.148;13.738;2023-03-31T03:37:31;11.00;99.90
25250;DHT22;13201;51.148;13.738;2023-03-31T03:39:56;11.10;99.90
25250;DHT22;13201;51.148;13.738;2023-03-31T03:42:22;11.00;99.90
25250;DHT22;13201;51.148;13.738;2023-03-31T03:44:48;11.00;99.90
25250;DHT22;13201;51.148;13.738;2023-03-31T03:47:14;11.10;99.90
25250;DHT22;13201;51.148;13.738;2023-03-31T03:49:39;11.10;99.90
25250;DHT22;13201;51.148;13.738;2023-03-31T03:52:05;11.10;99.90
25250;DHT22;13201;51.148;13.738;2023-03-31T03:54:31;11.20;99.90
25250;DHT22;13201;51.148;13.738;2023-03-31T03:56:57;11.10;99.90
25250;DHT22;13201;51.148;13.738;2023-03-31T03:59:23;11.20;99.90
25250;DHT22;13201;51.148;13.738;2023-03-31T04:01:48;11.30;99.90
25250;DHT22;13201;51.148;13.738;2023-03-31T04:04:15;11.30;99.90
25250;DHT22;13201;51.148;13.738;2023-03-31T04:06:41;11.30;99.90
25250;DHT22;13201;51.148;13.738;2023-03-31T04:09:07;11.30;99.90
25250;DHT22;13201;51.148;13.738;2023-03-31T04:11:33;11.30;99.90
25250;DHT22;13201;51.148;13.738;2023-03-31T04:13:59;11.40;99.90
25250;DHT22;13201;51.148;13.738;2023-03-31T04:16:25;11.30;99.90
25250;DHT22;13201;51.148;13.738;2023-03-31T04:18:52;11.30;99.90
25250;DHT22;13201;51.148;13.738;2023-03-31T04:21:21;11.30;99.90
25250;DHT22;13201;51.148;13.738;2023-03-31T04:23:51;11.30;99.90
25250;DHT22;13201;51.148;13.738;2023-03-31T04:26:24;11.40;99.90
25250;DHT22;13201;51.148;13.738;2023-03-31T04:28:56;11.40;99.90
25250;DHT22;13201;51.148;13.738;2023-03-31T04:31:25;11.30;99.90
25250;DHT22;13201;51.148;13.738;2023-03-31T04:33:54;11.20;99.90
25250;DHT22;13201;51.148;13.738;2023-03-31T04:36:21;11.30;99.90
25250;DHT22;13201;51.148;13.738;2023-03-31T04:38:49;11.30;99.90
25250;DHT22;13201;51.148;13.738;2023-03-31T04:41:22;11.30;99.90
25250;DHT22;13201;51.148;13.738;2023-03-31T04:43:48;11.30;99.90
25250;DHT22;13201;51.148;13.738;2023-03-31T04:46:14;11.40;99.90
25250;DHT22;13201;51.148;13.738;2023-03-31T04:48:40;11.40;99.90
25250;DHT22;13201;51.148;13.738;2023-03-31T04:51:06;11.40;99.90
25250;DHT22;13201;51.148;13.738;2023-03-31T04:53:32;11.40;99.90
25250;DHT22;13201;51.148;13.738;2023-03-31T04:55:58;11.50;99.90
25250;DHT22;13201;51.148;13.738;2023-03-31T04:58:24;11.50;99.90
25250;DHT22;13201;51.148;13.738;2023-03-31T05:00:51;11.50;99.90
25250;DHT22;13201;51.148;13.738;2023-03-31T05:03:17;11.60;99.90
25250;DHT22;13201;51.148;13.738;2023-03-31T05:05:43;11.70;99.90
25250;DHT22;13201;51.148;13.738;2023-03-31T05:08:08;11.50;99.90
25250;DHT22;13201;51.148;13.738;2023-03-31T05:10:34;11.60;99.90
25250;DHT22;13201;51.148;13.738;2023-03-31T05:13:00;11.50;99.90
25250;DHT22;13201;51.148;13.738;2023-03-31T05:15:25;11.50;99.90
25250;DHT22;13201;51.148;13.738;2023-03-31T05:17:51;11.50;99.90
25250;DHT22;13201;51.148;13.738;2023-03-31T05:20:18;11.40;99.90
25250;DHT22;13201;51.148;13.738;2023-03-31T05:22:44;11.30;99.90
25250;DHT22;13201;51.148;13.738;2023-03-31T05:25:11;11.40;99.90
25250;DHT22;13201;51.148;13.738;2023-03-31T05:27:39;11.40;99.90
25250;DHT22;13201;51.148;13.738;2023-03-31T05:30:05;11.40;99.90
25250;DHT22;13201;51.148;13.738;2023-03-31T05:32:32;11.40;99.90
25250;DHT22;13201;51.148;13.738;2023-03-31T05:34:58;11.40;99.90
25250;DHT22;13201;51.148;13.738;2023-03-31T05:37:25;11.40;99.90
25250;DHT22;13201;51.148;13.738;2023-03-31T05:39:51;11.40;99.90
25250;DHT22;13201;51.148;13.738;2023-03-31T05:42:17;11.40;99.90
25250;DHT22;13201;51.148;13.738;2023-03-31T05:44:44;11.50;99.90
25250;DHT22;13201;51.148;13.738;2023-03-31T05:47:10;11.50;99.90
25250;DHT22;13201;51.148;13.738;2023-03-31T05:49:36;11.50;99.90
25250;DHT22;13201;51.148;13.738;2023-03-31T05:52:03;11.50;99.90
25250;DHT22;13201;51.148;13.738;2023-03-31T05:54:30;11.60;99.90
25250;DHT22;13201;51.148;13.738;2023-03-31T05:56:56;11.70;99.90
25250;DHT22;13201;51.148;13.738;2023-03-31T05:59:21;11.80;99.90
25250;DHT22;13201;51.148;13.738;2023-03-31T06:01:47;11.80;99.90
25250;DHT22;13201;51.148;13.738;2023-03-31T06:04:13;11.90;99.90
25250;DHT22;13201;51.148;13.738;2023-03-31T06:06:38;11.90;99.90
25250;DHT22;13201;51.148;13.738;2023-03-31T06:09:04;11.90;99.90
25250;DHT22;13201;51.148;13.738;2023-03-31T06:11:30;12.00;99.90
25250;DHT22;13201;51.148;13.738;2023-03-31T06:13:56;12.00;99.90
25250;DHT22;13201;51.148;13.738;2023-03-31T06:16:22;12.00;99.90
25250;DHT22;13201;51.148;13.738;2023-03-31T06:18:48;12.30;99.90
25250;DHT22;13201;51.148;13.738;2023-03-31T06:21:16;12.30;99.90
25250;DHT22;13201;51.148;13.738;2023-03-31T06:23:42;12.30;99.90
25250;DHT22;13201;51.148;13.738;2023-03-31T06:26:16;12.40;99.90
25250;DHT22;13201;51.148;13.738;2023-03-31T06:28:43;12.50;99.90
25250;DHT22;13201;51.148;13.738;2023-03-31T06:31:11;12.50;99.90
25250;DHT22;13201;51.148;13.738;2023-03-31T06:33:38;12.50;99.90
25250;DHT22;13201;51.148;13.738;2023-03-31T06:36:05;12.40;99.90
25250;DHT22;13201;51.148;13.738;2023-03-31T06:38:32;12.50;99.90
25250;DHT22;13201;51.148;13.738;2023-03-31T06:40:58;12.70;99.90
25250;DHT22;13201;51.148;13.738;2023-03-31T06:43:23;12.70;99.90
25250;DHT22;13201;51.148;13.738;2023-03-31T06:45:51;12.80;99.90
25250;DHT22;13201;51.148;13.738;2023-03-31T06:48:17;12.80;99.90
25250;DHT22;13201;51.148;13.738;2023-03-31T06:50:43;12.70;99.90
25250;DHT22;13201;51.148;13.738;2023-03-31T06:53:08;12.80;99.90
25250;DHT22;13201;51.148;13.738;2023-03-31T06:55:35;12.90;99.90
25250;DHT22;13201;51.148;13.738;2023-03-31T06:58:01;12.80;99.90
25250;DHT22;13201;51.148;13.738;2023-03-31T07:00:27;12.70;99.90
25250;DHT22;13201;51.148;13.738;2023-03-31T07:02:53;12.90;99.90
25250;DHT22;13201;51.148;13.738;2023-03-31T07:05:19;12.90;99.90
25250;DHT22;13201;51.148;13.738;2023-03-31T07:07:52;12.80;99.90
25250;DHT22;13201;51.148;13.738;2023-03-31T07:10:18;12.90;99.90
25250;DHT22;13201;51.148;13.738;2023-03-31T07:12:43;12.90;99.90
25250;DHT22;13201;51.148;13.738;2023-03-31T07:15:10;13.00;99.90
25250;DHT22;13201;51.148;13.738;2023-03-31T07:17:35;13.00;99.90
25250;DHT22;13201;51.148;13.738;2023-03-31T07:20:02;13.00;99.90
25250;DHT22;13201;51.148;13.738;2023-03-31T07:22:29;13.00;99.90
25250;DHT22;13201;51.148;13.738;2023-03-31T07:24:55;13.10;99.90
25250;DHT22;13201;51.148;13.738;2023-03-31T07:27:21;13.00;99.90
25250;DHT22;13201;51.148;13.738;2023-03-31T07:29:46;13.20;99.90
25250;DHT22;13201;51.148;13.738;2023-03-31T07:32:12;13.40;99.90
25250;DHT22;13201;51.148;13.738;2023-03-31T07:34:38;13.40;99.90
25250;DHT22;13201;51.148;13.738;2023-03-31T07:37:05;13.40;99.90
25250;DHT22;13201;51.148;13.738;2023-03-31T07:39:31;13.50;99.90
25250;DHT22;13201;51.148;13.738;2023-03-31T07:41:57;13.60;99.90
25250;DHT22;13201;51.148;13.738;2023-03-31T07:44:23;13.70;99.90
25250;DHT22;13201;51.148;13.738;2023-03-31T07:46:48;13.90;99.90
25250;DHT22;13201;51.148;13.738;2023-03-31T07:49:14;14.00;99.90
25250;DHT22;13201;51.148;13.738;2023-03-31T07:51:40;14.00;99.90
25250;DHT22;13201;51.148;13.738;2023-03-31T07:54:06;14.20;99.90
25250;DHT22;13201;51.148;13.738;2023-03-31T07:56:32;14.30;99.90
25250;DHT22;13201;51.148;13.738;2023-03-31T07:58:58;14.20;99.90
25250;DHT22;13201;51.148;13.738;2023-03-31T08:01:24;14.30;99.90
25250;DHT22;13201;51.148;13.738;2023-03-31T08:03:50;14.50;99.90
25250;DHT22;13201;51.148;13.738;2023-03-31T08:06:20;14.40;99.90
25250;DHT22;13201;51.148;13.738;2023-03-31T08:08:47;14.50;99.90
25250;DHT22;13201;51.148;13.738;2023-03-31T08:11:13;14.50;99.90
25250;DHT22;13201;51.148;13.738;2023-03-31T08:13:39;14.50;99.90
25250;DHT22;13201;51.148;13.738;2023-03-31T08:16:04;14.50;99.90
25250;DHT22;13201;51.148;13.738;2023-03-31T08:18:30;14.50;99.90
25250;DHT22;13201;51.148;13.738;2023-03-31T08:20:56;14.50;99.90
25250;DHT22;13201;51.148;13.738;2023-03-31T08:23:22;14.40;99.90
25250;DHT22;13201;51.148;13.738;2023-03-31T08:25:47;14.30;99.90
25250;DHT22;13201;51.148;13.738;2023-03-31T08:28:13;14.30;99.90
25250;DHT22;13201;51.148;13.738;2023-03-31T08:30:40;14.20;99.90
25250;DHT22;13201;51.148;13.738;2023-03-31T08:33:06;14.10;99.90
25250;DHT22;13201;51.148;13.738;2023-03-31T08:35:35;14.00;99.90
25250;DHT22;13201;51.148;13.738;2023-03-31T08:38:01;14.10;99.90
25250;DHT22;13201;51.148;13.738;2023-03-31T08:40:28;14.00;99.90
25250;DHT22;13201;51.148;13.738;2023-03-31T08:43:07;14.00;99.90
25250;DHT22;13201;51.148;13.738;2023-03-31T08:45:40;14.10;99.90
25250;DHT22;13201;51.148;13.738;2023-03-31T08:48:28;14.20;99.90
25250;DHT22;13201;51.148;13.738;2023-03-31T08:51:02;14.00;99.90
25250;DHT22;13201;51.148;13.738;2023-03-31T08:53:35;14.10;99.90
25250;DHT22;13201;51.148;13.738;2023-03-31T08:56:03;14.00;99.90
25250;DHT22;13201;51.148;13.738;2023-03-31T08:58:45;14.10;99.90
25250;DHT22;13201;51.148;13.738;2023-03-31T09:06:35;14.10;99.90
25250;DHT22;13201;51.148;13.738;2023-03-31T09:09:06;14.10;99.90
25250;DHT22;13201;51.148;13.738;2023-03-31T09:11:38;14.10;99.90
25250;DHT22;13201;51.148;13.738;2023-03-31T09:14:30;14.00;99.90
25250;DHT22;13201;51.148;13.738;2023-03-31T09:19:56;13.70;99.90
25250;DHT22;13201;51.148;13.738;2023-03-31T09:22:31;13.60;99.90
25250;DHT22;13201;51.148;13.738;2023-03-31T09:27:29;13.80;99.90
25250;DHT22;13201;51.148;13.738;2023-03-31T09:32:52;13.50;99.90
25250;DHT22;13201;51.148;13.738;2023-03-31T09:35:22;13.60;99.90
25250;DHT22;13201;51.148;13.738;2023-03-31T09:37:50;13.60;99.90
25250;DHT22;13201;51.148;13.738;2023-03-31T09:40:23;13.90;99.90
25250;DHT22;13201;51.148;13.738;2023-03-31T09:43:43;13.80;99.90
25250;DHT22;13201;51.148;13.738;2023-03-31T09:45:50;13.90;99.90
25250;DHT22;13201;51.148;13.738;2023-03-31T09:48:19;13.70;99.90
25250;DHT22;13201;51.148;13.738;2023-03-31T09:51:15;13.80;99.90
25250;DHT22;13201;51.148;13.738;2023-03-31T09:53:50;13.80;99.90
25250;DHT22;13201;51.148;13.738;2023-03-31T09:59:34;13.60;99.90
25250;DHT22;13201;51.148;13.738;2023-03-31T10:02:40;13.50;99.90
25250;DHT22;13201;51.148;13.738;2023-03-31T10:05:06;13.50;99.90
25250;DHT22;13201;51.148;13.738;2023-03-31T10:07:33;13.50;99.90
25250;DHT22;13201;51.148;13.738;2023-03-31T10:09:59;13.60;99.90
25250;DHT22;13201;51.148;13.738;2023-03-31T10:12:28;13.40;99.90
25250;DHT22;13201;51.148;13.738;2023-03-31T10:15:10;13.50;99.90
25250;DHT22;13201;51.148;13.738;2023-03-31T10:17:41;13.40;99.90
25250;DHT22;13201;51.148;13.738;2023-03-31T10:20:24;13.50;99.90
25250;DHT22;13201;51.148;13.738;2023-03-31T10:22:52;13.40;99.90
25250;DHT22;13201;51.148;13.738;2023-03-31T10:25:22;13.60;99.90
25250;DHT22;13201;51.148;13.738;2023-03-31T10:27:51;13.50;99.90
25250;DHT22;13201;51.148;13.738;2023-03-31T10:30:25;13.50;99.90
25250;DHT22;13201;51.148;13.738;2023-03-31T10:32:51;13.50;99.90
25250;DHT22;13201;51.148;13.738;2023-03-31T10:35:24;13.40;99.90
25250;DHT22;13201;51.148;13.738;2023-03-31T10:37:55;13.40;99.90
25250;DHT22;13201;51.148;13.738;2023-03-31T10:40:27;13.30;99.90
25250;DHT22;13201;51.148;13.738;2023-03-31T10:43:16;13.30;99.90
25250;DHT22;13201;51.148;13.738;2023-03-31T10:45:47;13.20;99.90
25250;DHT22;13201;51.148;13.738;2023-03-31T10:48:34;13.30;99.90
25250;DHT22;13201;51.148;13.738;2023-03-31T10:51:28;13.40;99.90
25250;DHT22;13201;51.148;13.738;2023-03-31T10:54:00;13.30;99.90
25250;DHT22;13201;51.148;13.738;2023-03-31T10:56:42;13.40;99.90
25250;DHT22;13201;51.148;13.738;2023-03-31T11:10:31;13.40;99.90
25250;DHT22;13201;51.148;13.738;2023-03-31T11:19:00;13.10;99.90
25250;DHT22;13201;51.148;13.738;2023-03-31T11:21:50;13.30;99.90
25250;DHT22;13201;51.148;13.738;2023-03-31T11:30:18;13.40;99.90
25250;DHT22;13201;51.148;13.738;2023-03-31T11:32:58;13.20;99.90
25250;DHT22;13201;51.148;13.738;2023-03-31T11:35:40;13.20;99.90
25250;DHT22;13201;51.148;13.738;2023-03-31T11:41:07;13.10;99.90
25250;DHT22;13201;51.148;13.738;2023-03-31T11:43:47;13.20;99.90
25250;DHT22;13201;51.148;13.738;2023-03-31T11:46:20;13.10;99.90
25250;DHT22;13201;51.148;13.738;2023-03-31T11:48:54;13.00;99.90
25250;DHT22;13201;51.148;13.738;2023-03-31T11:54:17;12.80;99.90
25250;DHT22;13201;51.148;13.738;2023-03-31T11:56:43;12.90;99.90
25250;DHT22;13201;51.148;13.738;2023-03-31T11:59:14;12.80;99.90
25250;DHT22;13201;51.148;13.738;2023-03-31T12:04:51;12.70;99.90
25250;DHT22;13201;51.148;13.738;2023-03-31T12:07:37;12.80;99.90
25250;DHT22;13201;51.148;13.738;2023-03-31T12:13:01;12.60;99.90
25250;DHT22;13201;51.148;13.738;2023-03-31T12:15:41;12.60;99.90
25250;DHT22;13201;51.148;13.738;2023-03-31T12:18:15;12.70;99.90
25250;DHT22;13201;51.148;13.738;2023-03-31T12:20:49;12.60;99.90
25250;DHT22;13201;51.148;13.738;2023-03-31T12:23:22;12.50;99.90
25250;DHT22;13201;51.148;13.738;2023-03-31T12:26:06;12.40;99.90
25250;DHT22;13201;51.148;13.738;2023-03-31T12:28:36;12.40;99.90
25250;DHT22;13201;51.148;13.738;2023-03-31T12:31:07;12.30;99.90
25250;DHT22;13201;51.148;13.738;2023-03-31T12:33:42;12.20;99.90
25250;DHT22;13201;51.148;13.738;2023-03-31T12:36:25;12.20;99.90
25250;DHT22;13201;51.148;13.738;2023-03-31T12:42:18;12.30;99.90
25250;DHT22;13201;51.148;13.738;2023-03-31T12:45:15;12.20;99.90
25250;DHT22;13201;51.148;13.738;2023-03-31T12:55:58;12.20;99.90
25250;DHT22;13201;51.148;13.738;2023-03-31T13:03:42;12.30;99.90
25250;DHT22;13201;51.148;13.738;2023-03-31T13:08:57;12.40;99.90
25250;DHT22;13201;51.148;13.738;2023-03-31T13:14:20;12.40;99.90
25250;DHT22;13201;51.148;13.738;2023-03-31T13:16:51;12.30;99.90
25250;DHT22;13201;51.148;13.738;2023-03-31T13:19:32;12.30;99.90
25250;DHT22;13201;51.148;13.738;2023-03-31T13:22:00;12.00;99.90
25250;DHT22;13201;51.148;13.738;2023-03-31T13:24:27;12.10;99.90
25250;DHT22;13201;51.148;13.738;2023-03-31T13:26:54;12.20;99.90
25250;DHT22;13201;51.148;13.738;2023-03-31T13:29:39;12.20;99.90
25250;DHT22;13201;51.148;13.738;2023-03-31T13:32:16;12.30;99.90
25250;DHT22;13201;51.148;13.738;2023-03-31T13:34:43;12.30;99.90
25250;DHT22;13201;51.148;13.738;2023-03-31T13:51:25;12.40;99.90
25250;DHT22;13201;51.148;13.738;2023-03-31T13:59:45;12.30;99.90
25250;DHT22;13201;51.148;13.738;2023-03-31T14:05:33;12.30;99.90
25250;DHT22;13201;51.148;13.738;2023-03-31T14:08:22;12.20;99.90
25250;DHT22;13201;51.148;13.738;2023-03-31T14:10:51;12.30;99.90
25250;DHT22;13201;51.148;13.738;2023-03-31T14:13:18;12.10;99.90
25250;DHT22;13201;51.148;13.738;2023-03-31T14:18:30;12.20;99.90
25250;DHT22;13201;51.148;13.738;2023-03-31T14:21:03;12.20;99.90
25250;DHT22;13201;51.148;13.738;2023-03-31T14:35:09;12.30;99.90
25250;DHT22;13201;51.148;13.738;2023-03-31T14:37:42;12.30;99.90
25250;DHT22;13201;51.148;13.738;2023-03-31T14:40:11;12.30;99.90
25250;DHT22;13201;51.148;13.738;2023-03-31T14:42:39;12.40;99.90
25250;DHT22;13201;51.148;13.738;2023-03-31T14:45:17;12.40;99.90
25250;DHT22;13201;51.148;13.738;2023-03-31T14:48:02;12.40;99.90
25250;DHT22;13201;51.148;13.738;2023-03-31T14:50:32;12.40;99.90
25250;DHT22;13201;51.148;13.738;2023-03-31T14:52:59;12.40;99.90
25250;DHT22;13201;51.148;13.738;2023-03-31T14:55:28;12.50;99.90
25250;DHT22;13201;51.148;13.738;2023-03-31T14:57:57;12.90;99.90
25250;DHT22;13201;51.148;13.738;2023-03-31T15:00:27;13.70;99.90
25250;DHT22;13201;51.148;13.738;2023-03-31T15:02:54;14.30;99.90
25250;DHT22;13201;51.148;13.738;2023-03-31T15:05:27;14.80;99.90
25250;DHT22;13201;51.148;13.738;2023-03-31T15:08:01;14.60;99.90
25250;DHT22;13201;51.148;13.738;2023-03-31T15:10:34;14.90;99.90
25250;DHT22;13201;51.148;13.738;2023-03-31T15:13:18;15.10;99.90
25250;DHT22;13201;51.148;13.738;2023-03-31T15:15:44;14.80;99.90
25250;DHT22;13201;51.148;13.738;2023-03-31T15:18:15;14.80;99.90
25250;DHT22;13201;51.148;13.738;2023-03-31T15:20:42;14.50;99.90
25250;DHT22;13201;51.148;13.738;2023-03-31T15:23:23;14.50;99.90
25250;DHT22;13201;51.148;13.738;2023-03-31T15:25:53;14.50;99.90
25250;DHT22;13201;51.148;13.738;2023-03-31T15:28:20;14.70;99.90
25250;DHT22;13201;51.148;13.738;2023-03-31T15:30:49;15.60;99.90
25250;DHT22;13201;51.148;13.738;2023-03-31T15:33:23;15.80;99.90
25250;DHT22;13201;51.148;13.738;2023-03-31T15:35:50;16.20;99.90
25250;DHT22;13201;51.148;13.738;2023-03-31T15:38:17;15.90;99.90
25250;DHT22;13201;51.148;13.738;2023-03-31T15:40:51;15.60;99.90
25250;DHT22;13201;51.148;13.738;2023-03-31T15:46:00;14.90;99.90
25250;DHT22;13201;51.148;13.738;2023-03-31T15:48:33;14.80;99.90
25250;DHT22;13201;51.148;13.738;2023-03-31T15:51:23;14.60;99.90
25250;DHT22;13201;51.148;13.738;2023-03-31T15:53:50;14.50;99.90
25250;DHT22;13201;51.148;13.738;2023-03-31T15:56:43;14.50;99.90
25250;DHT22;13201;51.148;13.738;2023-03-31T15:59:22;14.60;99.90
25250;DHT22;13201;51.148;13.738;2023-03-31T16:01:49;14.50;99.90
25250;DHT22;13201;51.148;13.738;2023-03-31T16:04:15;14.30;99.90
25250;DHT22;13201;51.148;13.738;2023-03-31T16:06:53;13.90;99.90
25250;DHT22;13201;51.148;13.738;2023-03-31T16:09:24;13.80;99.90
25250;DHT22;13201;51.148;13.738;2023-03-31T16:12:19;13.70;99.90
25250;DHT22;13201;51.148;13.738;2023-03-31T16:14:55;13.60;99.90
25250;DHT22;13201;51.148;13.738;2023-03-31T16:19:58;13.40;99.90
25250;DHT22;13201;51.148;13.738;2023-03-31T16:22:36;13.30;99.90
25250;DHT22;13201;51.148;13.738;2023-03-31T16:25:11;13.30;99.90
25250;DHT22;13201;51.148;13.738;2023-03-31T16:27:40;13.10;99.90
25250;DHT22;13201;51.148;13.738;2023-03-31T16:30:12;12.80;99.90
25250;DHT22;13201;51.148;13.738;2023-03-31T16:32:38;12.80;99.90
25250;DHT22;13201;51.148;13.738;2023-03-31T16:35:22;13.10;99.90
25250;DHT22;13201;51.148;13.738;2023-03-31T16:37:53;13.30;99.90
25250;DHT22;13201;51.148;13.738;2023-03-31T16:40:18;13.30;99.90
25250;DHT22;13201;51.148;13.738;2023-03-31T16:42:44;13.40;99.90
25250;DHT22;13201;51.148;13.738;2023-03-31T16:45:10;13.80;99.90
25250;DHT22;13201;51.148;13.738;2023-03-31T16:47:38;13.80;99.90
25250;DHT22;13201;51.148;13.738;2023-03-31T16:50:04;13.80;99.90
25250;DHT22;13201;51.148;13.738;2023-03-31T16:52:33;13.70;99.90
25250;DHT22;13201;51.148;13.738;2023-03-31T16:54:59;13.50;99.90
25250;DHT22;13201;51.148;13.738;2023-03-31T16:57:24;13.10;99.90
25250;DHT22;13201;51.148;13.738;2023-03-31T16:59:50;13.00;99.90
25250;DHT22;13201;51.148;13.738;2023-03-31T17:02:16;12.60;99.90
25250;DHT22;13201;51.148;13.738;2023-03-31T17:04:41;12.60;99.90
25250;DHT22;13201;51.148;13.738;2023-03-31T17:07:07;12.40;99.90
25250;DHT22;13201;51.148;13.738;2023-03-31T17:09:32;12.40;99.90
25250;DHT22;13201;51.148;13.738;2023-03-31T17:11:58;12.30;99.90
25250;DHT22;13201;51.148;13.738;2023-03-31T17:14:24;12.20;99.90
25250;DHT22;13201;51.148;13.738;2023-03-31T17:16:49;12.10;99.90
25250;DHT22;13201;51.148;13.738;2023-03-31T17:19:15;12.00;99.90
25250;DHT22;13201;51.148;13.738;2023-03-31T17:21:42;11.80;99.90
25250;DHT22;13201;51.148;13.738;2023-03-31T17:24:08;11.80;99.90
25250;DHT22;13201;51.148;13.738;2023-03-31T17:26:34;11.90;99.90
25250;DHT22;13201;51.148;13.738;2023-03-31T17:29:02;11.80;99.90
25250;DHT22;13201;51.148;13.738;2023-03-31T17:31:28;11.70;99.90
25250;DHT22;13201;51.148;13.738;2023-03-31T17:33:56;11.80;99.90
25250;DHT22;13201;51.148;13.738;2023-03-31T17:36:21;11.70;99.90
25250;DHT22;13201;51.148;13.738;2023-03-31T17:38:47;11.70;99.90
25250;DHT22;13201;51.148;13.738;2023-03-31T17:41:13;11.90;99.90
25250;DHT22;13201;51.148;13.738;2023-03-31T17:43:46;11.80;99.90
25250;DHT22;13201;51.148;13.738;2023-03-31T17:46:12;11.80;99.90
25250;DHT22;13201;51.148;13.738;2023-03-31T17:48:38;11.70;99.90
25250;DHT22;13201;51.148;13.738;2023-03-31T17:51:08;11.60;99.90
25250;DHT22;13201;51.148;13.738;2023-03-31T17:53:35;11.40;99.90
25250;DHT22;13201;51.148;13.738;2023-03-31T17:56:02;11.20;99.90
25250;DHT22;13201;51.148;13.738;2023-03-31T17:58:28;11.10;99.90
25250;DHT22;13201;51.148;13.738;2023-03-31T18:00:54;11.00;99.90
25250;DHT22;13201;51.148;13.738;2023-03-31T18:03:19;10.90;99.90
25250;DHT22;13201;51.148;13.738;2023-03-31T18:05:46;10.80;99.90
25250;DHT22;13201;51.148;13.738;2023-03-31T18:08:12;10.70;99.90
25250;DHT22;13201;51.148;13.738;2023-03-31T18:10:37;10.70;99.90
25250;DHT22;13201;51.148;13.738;2023-03-31T18:13:03;10.70;99.90
25250;DHT22;13201;51.148;13.738;2023-03-31T18:15:29;10.80;99.90
25250;DHT22;13201;51.148;13.738;2023-03-31T18:17:55;10.80;99.90
25250;DHT22;13201;51.148;13.738;2023-03-31T18:20:21;10.90;99.90
25250;DHT22;13201;51.148;13.738;2023-03-31T18:22:48;10.40;99.90
25250;DHT22;13201;51.148;13.738;2023-03-31T18:25:14;10.70;99.90
25250;DHT22;13201;51.148;13.738;2023-03-31T18:27:40;10.80;99.90